Time;durP1;ratioP1;P1;durP2;ratioP2;P2;SDS_P1;SDS_P2;PMS_P1;PMS_P2;Temp;Humidity;BMP_temperature;BMP_pressure;BME280_temperature;BME280_humidity;BME280_pressure;Samples;Min_cycle;Max_cycle;Signal;HPM_P1;HPM_P2
2022/10/05 00:02:17;;;;;;;1.80;1.70;;;;;;;12.17;70.30;99106.47;5093448;28;20194;-59
2022/10/05 00:04:43;;;;;;;2.38;2.03;;;;;;;12.15;70.31;99103.16;5093399;28;20193;-59
2022/10/05 00:07:14;;;;;;;2.20;2.10;;;;;;;12.18;70.40;99103.78;5093322;28;20196;-59
2022/10/05 00:09:40;;;;;;;2.10;2.00;;;;;;;12.10;71.01;99105.22;5093332;28;20164;-59
2022/10/05 00:12:15;;;;;;;2.17;2.08;;;;;;;12.16;71.03;99113.44;5093490;28;20188;-59
2022/10/05 00:14:43;;;;;;;2.22;2.10;;;;;;;12.15;71.11;99104.00;5093535;28;20175;-59
2022/10/05 00:17:23;;;;;;;2.20;2.10;;;;;;;12.15;71.18;99116.13;5093160;28;20169;-59
2022/10/05 00:19:52;;;;;;;2.40;2.30;;;;;;;12.18;71.72;99123.69;5093057;28;20187;-59
2022/10/05 00:22:27;;;;;;;2.25;1.95;;;;;;;12.31;71.35;99116.81;5092985;28;20681;-59
2022/10/05 00:24:57;;;;;;;2.50;2.05;;;;;;;12.36;71.33;99120.78;5093700;28;20195;-59
2022/10/05 00:27:25;;;;;;;2.10;2.00;;;;;;;12.52;70.82;99131.00;5093248;28;20674;-59
2022/10/05 00:29:52;;;;;;;2.05;1.95;;;;;;;12.64;70.31;99133.63;5092981;28;20168;-59
2022/10/05 00:32:18;;;;;;;1.90;1.80;;;;;;;12.72;70.13;99117.56;5091592;28;20180;-59
2022/10/05 00:34:44;;;;;;;2.08;1.98;;;;;;;12.76;69.74;99124.19;5091615;28;20190;-59
2022/10/05 00:37:12;;;;;;;1.95;1.85;;;;;;;12.92;68.89;99122.25;5092876;28;20179;-59
2022/10/05 00:39:39;;;;;;;2.65;2.42;;;;;;;13.00;68.43;99139.03;5092909;28;20183;-59
2022/10/05 00:42:29;;;;;;;1.88;1.77;;;;;;;12.91;68.63;99120.59;5091418;28;20679;-59
2022/10/05 00:45:08;;;;;;;2.10;2.00;;;;;;;12.92;67.78;99127.44;5092676;28;20176;-59
2022/10/05 00:47:51;;;;;;;3.70;1.95;;;;;;;12.84;68.31;99122.75;5093222;28;20192;-59
2022/10/05 00:50:25;;;;;;;2.13;1.90;;;;;;;12.84;68.15;99127.13;5093054;28;20160;-58
2022/10/05 00:53:03;;;;;;;2.25;2.13;;;;;;;12.75;68.15;99122.53;5092852;28;20200;-58
2022/10/05 00:55:57;;;;;;;2.20;2.10;;;;;;;12.71;68.45;99126.28;5092692;28;20172;-58
2022/10/05 00:58:29;;;;;;;2.90;2.65;;;;;;;12.57;69.09;99123.75;5074144;28;20184;-58
2022/10/05 01:01:16;;;;;;;2.10;2.00;;;;;;;12.41;69.77;99117.88;5091172;28;20172;-58
2022/10/05 01:03:59;;;;;;;2.05;1.95;;;;;;;12.30;70.34;99112.53;5092563;28;20167;-58
2022/10/05 01:06:46;;;;;;;2.03;1.92;;;;;;;12.15;71.08;99116.97;5092443;28;20241;-58
2022/10/05 01:09:40;;;;;;;2.17;1.98;;;;;;;12.07;71.43;99113.19;5092385;28;20222;-58
2022/10/05 01:12:26;;;;;;;2.30;2.10;;;;;;;11.89;72.33;99117.78;5037449;28;20285;-58
2022/10/05 01:15:23;;;;;;;2.17;2.08;;;;;;;11.88;72.32;99118.69;5092421;28;20160;-58
2022/10/05 01:18:18;;;;;;;2.58;2.30;;;;;;;11.77;73.33;99105.56;5092218;28;20536;-58
2022/10/05 01:20:55;;;;;;;2.80;2.60;;;;;;;11.75;73.43;99116.97;5086329;28;20647;-58
2022/10/05 01:23:35;;;;;;;2.30;2.10;;;;;;;11.62;73.97;99111.69;5092173;28;20315;-59
2022/10/05 01:26:13;;;;;;;2.17;2.08;;;;;;;11.60;73.95;99107.53;5092015;28;20241;-59
2022/10/05 01:29:17;;;;;;;2.20;2.03;;;;;;;11.52;74.54;99104.56;5092253;28;20152;-59
2022/10/05 01:31:58;;;;;;;1.98;1.85;;;;;;;11.61;74.59;99114.41;5083268;28;20192;-59
2022/10/05 01:34:41;;;;;;;2.10;2.00;;;;;;;11.63;74.21;99103.00;5098834;28;20156;-59
2022/10/05 01:37:53;;;;;;;2.50;2.30;;;;;;;11.62;73.96;99121.25;5098810;28;20233;-59
2022/10/05 01:40:22;;;;;;;2.25;1.88;;;;;;;11.62;74.14;99121.25;5036724;28;20264;-59
2022/10/05 01:43:05;;;;;;;2.50;2.08;;;;;;;11.63;74.13;99122.91;5036821;28;20174;-59
2022/10/05 01:45:42;;;;;;;2.50;2.33;;;;;;;11.58;73.91;99123.19;5077793;28;20289;-59
2022/10/05 01:48:15;;;;;;;2.17;1.98;;;;;;;11.56;73.62;99125.00;5098585;28;20200;-58
2022/10/05 01:51:03;;;;;;;2.20;2.00;;;;;;;11.52;73.83;99133.06;5098929;28;20604;-59
2022/10/05 01:53:55;;;;;;;2.10;2.00;;;;;;;11.49;73.93;99135.84;5099087;28;20168;-59
2022/10/05 01:56:32;;;;;;;1.85;1.85;;;;;;;11.49;74.13;99146.22;5069650;28;20180;-59
2022/10/05 01:59:10;;;;;;;1.77;1.67;;;;;;;11.44;73.79;99140.47;5098633;28;20225;-59
2022/10/05 02:01:49;;;;;;;2.13;2.03;;;;;;;11.47;73.56;99148.06;5098805;28;20164;-59
2022/10/05 02:04:22;;;;;;;2.53;2.38;;;;;;;11.39;74.07;99132.97;5098615;28;20239;-59
2022/10/05 02:06:49;;;;;;;2.30;2.20;;;;;;;11.31;74.21;99150.72;5098599;28;20700;-59
2022/10/05 02:09:46;;;;;;;2.60;2.13;;;;;;;11.48;73.31;99147.13;5098666;28;20172;-59
2022/10/05 02:12:16;;;;;;;2.03;1.92;;;;;;;11.56;72.97;99153.50;5097564;28;20647;-59
2022/10/05 02:14:46;;;;;;;1.90;1.80;;;;;;;11.62;72.65;99147.16;5098475;28;20164;-59
2022/10/05 02:17:26;;;;;;;1.90;1.80;;;;;;;11.57;72.41;99144.84;5098525;28;20217;-59
2022/10/05 02:19:58;;;;;;;2.17;2.03;;;;;;;11.59;72.33;99157.72;5098360;28;20223;-59
2022/10/05 02:22:47;;;;;;;2.05;1.95;;;;;;;11.42;72.83;99163.03;5098362;28;20629;-58
2022/10/05 02:25:16;;;;;;;2.03;1.92;;;;;;;11.25;73.68;99158.88;5098494;28;20202;-59
2022/10/05 02:27:53;;;;;;;1.95;1.85;;;;;;;11.32;73.10;99164.53;5098186;28;20195;-59
2022/10/05 02:30:19;;;;;;;1.90;1.80;;;;;;;11.31;73.25;99162.84;5098475;28;20160;-59
2022/10/05 02:32:57;;;;;;;3.03;2.40;;;;;;;11.33;73.25;99169.59;5097270;28;20211;-59
2022/10/05 02:35:22;;;;;;;2.10;1.90;;;;;;;11.38;73.43;99175.34;5098360;28;20172;-59
2022/10/05 02:37:56;;;;;;;2.05;1.95;;;;;;;11.39;73.30;99177.00;5098475;28;20190;-59
2022/10/05 02:40:50;;;;;;;2.08;1.88;;;;;;;11.35;74.01;99185.06;5098301;28;20159;-59
2022/10/05 02:43:37;;;;;;;3.38;2.03;;;;;;;11.57;73.98;99201.00;5098122;28;20168;-60
2022/10/05 02:46:03;;;;;;;2.35;2.03;;;;;;;11.64;74.13;99212.69;5094764;28;20596;-60
2022/10/05 02:49:07;;;;;;;2.05;1.95;;;;;;;11.77;74.04;99224.00;5095191;28;20286;-59
2022/10/05 02:51:41;;;;;;;3.28;1.90;;;;;;;11.84;74.04;99226.13;5084119;28;20188;-60
2022/10/05 02:54:18;;;;;;;2.47;2.28;;;;;;;11.77;74.35;99221.41;5095068;28;20634;-59
2022/10/05 02:57:02;;;;;;;2.30;2.20;;;;;;;11.45;75.97;99222.47;5094882;28;20160;-58
2022/10/05 02:59:39;;;;;;;2.05;1.95;;;;;;;11.19;77.23;99221.41;5095042;28;20179;-58
2022/10/05 03:02:07;;;;;;;2.35;1.98;;;;;;;11.44;75.67;99210.44;5094951;28;20175;-58
2022/10/05 03:05:04;;;;;;;1.92;1.83;;;;;;;11.44;74.83;99202.66;5094764;28;20180;-58
2022/10/05 03:07:36;;;;;;;2.00;1.90;;;;;;;11.27;74.21;99198.47;5090104;28;20269;-58
2022/10/05 03:10:19;;;;;;;1.83;1.73;;;;;;;11.09;75.05;99196.13;5094539;28;20273;-58
2022/10/05 03:12:57;;;;;;;1.92;1.83;;;;;;;11.02;74.42;99194.78;5094586;28;20165;-58
2022/10/05 03:16:01;;;;;;;1.73;1.63;;;;;;;11.14;73.86;99207.06;5094534;28;20171;-58
2022/10/05 03:18:46;;;;;;;1.90;1.80;;;;;;;11.20;73.62;99201.53;5093147;28;20196;-58
2022/10/05 03:21:32;;;;;;;1.90;1.77;;;;;;;11.29;73.40;99206.16;5094214;28;20228;-58
2022/10/05 03:24:09;;;;;;;1.98;1.88;;;;;;;11.12;73.80;99201.97;5094497;28;20326;-58
2022/10/05 03:26:55;;;;;;;1.50;1.50;;;;;;;11.23;73.31;99206.50;5094521;28;20234;-59
2022/10/05 03:29:32;;;;;;;2.03;1.60;;;;;;;11.18;73.41;99209.38;5094479;28;20160;-58
2022/10/05 03:32:29;;;;;;;1.75;1.65;;;;;;;11.16;73.33;99200.84;5094047;28;20668;-58
2022/10/05 03:35:14;;;;;;;1.90;1.80;;;;;;;11.09;73.74;99207.31;5068714;28;20188;-58
2022/10/05 03:38:03;;;;;;;2.00;1.90;;;;;;;11.11;73.79;99199.47;5094457;28;20221;-58
2022/10/05 03:40:37;;;;;;;2.08;1.98;;;;;;;11.15;73.72;99195.78;5086073;28;20184;-58
2022/10/05 03:43:14;;;;;;;1.80;1.70;;;;;;;11.18;73.66;99205.94;5092642;28;20195;-58
2022/10/05 03:45:54;;;;;;;2.67;2.00;;;;;;;11.29;72.71;99206.16;5093818;28;20164;-58
2022/10/05 03:48:53;;;;;;;1.92;1.83;;;;;;;11.27;73.38;99213.19;5094226;28;20252;-58
2022/10/05 03:51:24;;;;;;;2.10;1.75;;;;;;;11.41;73.00;99205.44;5093993;28;20153;-58
2022/10/05 03:53:56;;;;;;;3.78;2.15;;;;;;;11.46;72.75;99214.63;5093722;28;20184;-58
2022/10/05 03:56:34;;;;;;;2.05;1.95;;;;;;;11.52;73.15;99216.84;5093286;28;20161;-59
2022/10/05 03:59:07;;;;;;;4.22;2.13;;;;;;;11.60;71.77;99218.97;5092609;28;20229;-59
2022/10/05 04:01:59;;;;;;;1.60;1.50;;;;;;;11.59;72.48;99222.50;5093678;28;20645;-59
2022/10/05 04:04:37;;;;;;;1.90;1.80;;;;;;;11.49;72.39;99223.97;5086305;28;20278;-59
2022/10/05 04:07:08;;;;;;;2.10;1.90;;;;;;;11.53;72.94;99220.25;5093509;28;20188;-59
2022/10/05 04:09:41;;;;;;;1.88;1.77;;;;;;;11.57;72.26;99226.94;5093454;28;20161;-59
2022/10/05 04:12:10;;;;;;;1.90;1.80;;;;;;;11.55;72.12;99233.97;5093343;28;20249;-59
2022/10/05 04:14:40;;;;;;;2.28;2.03;;;;;;;11.51;71.49;99238.50;5093574;28;20203;-59
2022/10/05 04:17:12;;;;;;;2.00;1.88;;;;;;;11.42;72.19;99243.38;5093233;28;20157;-59
2022/10/05 04:19:53;;;;;;;2.10;2.00;;;;;;;11.41;71.48;99237.38;5093082;28;20700;-59
2022/10/05 04:22:24;;;;;;;2.33;1.95;;;;;;;11.32;72.19;99237.91;5093299;28;20161;-59
2022/10/05 04:25:05;;;;;;;2.38;2.10;;;;;;;11.13;73.16;99252.84;5093130;28;20161;-59
2022/10/05 04:27:38;;;;;;;2.00;1.90;;;;;;;11.14;73.63;99251.09;5093010;28;20196;-59
2022/10/05 04:30:13;;;;;;;3.97;2.05;;;;;;;11.09;73.54;99245.34;5093090;28;20172;-59
2022/10/05 04:32:48;;;;;;;2.13;2.03;;;;;;;11.03;74.34;99256.88;5091587;28;20180;-59
2022/10/05 04:35:16;;;;;;;2.08;1.98;;;;;;;11.09;74.60;99259.09;5092976;28;20164;-59
2022/10/05 04:38:18;;;;;;;3.85;3.08;;;;;;;11.18;74.11;99270.69;5092919;28;20764;-59
2022/10/05 04:40:59;;;;;;;2.72;2.20;;;;;;;11.27;73.67;99272.78;5092748;28;20167;-60
2022/10/05 04:43:30;;;;;;;1.95;1.85;;;;;;;11.32;73.66;99276.75;5092727;28;20183;-59
2022/10/05 04:46:07;;;;;;;2.10;2.00;;;;;;;11.36;73.05;99282.59;5092555;28;20173;-59
2022/10/05 04:48:57;;;;;;;2.20;2.00;;;;;;;11.36;72.61;99285.19;5092814;28;20247;-59
2022/10/05 04:51:56;;;;;;;2.30;2.10;;;;;;;11.33;73.49;99285.38;5092737;28;20243;-59
2022/10/05 04:54:26;;;;;;;2.00;1.90;;;;;;;11.46;72.43;99294.09;5092548;28;20229;-59
2022/10/05 04:56:57;;;;;;;3.30;3.10;;;;;;;11.33;72.98;99293.97;5092670;28;20254;-59
2022/10/05 04:59:34;;;;;;;3.90;3.00;;;;;;;11.43;72.35;99294.28;5092828;28;20556;-58
2022/10/05 05:02:24;;;;;;;4.05;2.25;;;;;;;11.49;72.22;99294.75;5092719;28;20705;-59
2022/10/05 05:05:07;;;;;;;2.00;1.90;;;;;;;11.46;71.93;99291.50;5092502;28;20157;-58
2022/10/05 05:07:48;;;;;;;2.15;2.05;;;;;;;11.53;71.56;99304.03;5091612;28;20243;-58
2022/10/05 05:10:19;;;;;;;2.25;2.15;;;;;;;11.51;71.56;99302.44;5092275;28;20175;-58
2022/10/05 05:12:50;;;;;;;2.33;2.22;;;;;;;11.52;71.51;99301.53;5092288;28;20177;-58
2022/10/05 05:15:21;;;;;;;2.63;2.28;;;;;;;11.57;71.35;99312.47;5091979;28;20654;-58
2022/10/05 05:17:47;;;;;;;2.03;1.92;;;;;;;11.57;70.99;99309.88;5092246;28;20203;-58
2022/10/05 05:20:25;;;;;;;1.90;1.80;;;;;;;11.46;71.19;99317.44;5092147;28;20617;-58
2022/10/05 05:23:25;;;;;;;2.03;1.92;;;;;;;11.51;71.55;99315.41;5091133;28;20195;-58
2022/10/05 05:26:29;;;;;;;2.25;2.15;;;;;;;11.42;72.12;99313.34;5092344;28;20157;-58
2022/10/05 05:29:24;;;;;;;2.05;1.95;;;;;;;11.57;71.73;99315.06;5092433;28;20177;-58
2022/10/05 05:31:54;;;;;;;2.70;2.15;;;;;;;11.65;71.37;99318.91;5092563;28;20247;-59
2022/10/05 05:34:44;;;;;;;2.08;1.90;;;;;;;11.71;71.14;99328.06;5092035;28;20235;-58
2022/10/05 05:37:15;;;;;;;2.55;1.83;;;;;;;11.81;70.88;99313.66;5092113;28;20168;-59
2022/10/05 05:39:59;;;;;;;1.95;1.85;;;;;;;11.83;70.42;99317.81;5091977;28;20187;-59
2022/10/05 05:42:50;;;;;;;2.10;2.00;;;;;;;11.94;69.82;99317.16;5091866;28;20233;-59
2022/10/05 05:45:30;;;;;;;3.35;2.20;;;;;;;12.00;69.80;99327.19;5092137;28;20229;-59
2022/10/05 05:47:58;;;;;;;2.53;2.42;;;;;;;12.06;69.81;99329.41;5092163;28;20226;-58
2022/10/05 05:50:39;;;;;;;1.95;1.85;;;;;;;12.14;69.07;99330.63;5091800;28;20681;-59
2022/10/05 05:53:20;;;;;;;1.80;1.70;;;;;;;12.19;69.25;99330.38;5092243;28;20180;-59
2022/10/05 05:55:50;;;;;;;2.17;2.08;;;;;;;12.25;69.51;99337.78;5092035;28;20168;-58
2022/10/05 05:58:15;;;;;;;2.20;2.10;;;;;;;12.31;69.21;99340.81;5091761;28;20268;-59
2022/10/05 06:01:09;;;;;;;3.42;2.10;;;;;;;12.24;68.73;99341.28;5092137;28;20176;-59
2022/10/05 06:03:56;;;;;;;2.30;2.10;;;;;;;12.30;68.87;99351.28;5091910;28;20165;-59
2022/10/05 06:06:29;;;;;;;2.60;2.40;;;;;;;12.33;68.46;99351.09;5090731;28;20283;-59
2022/10/05 06:09:31;;;;;;;2.10;2.00;;;;;;;12.38;68.19;99362.88;5090898;28;20161;-59
2022/10/05 06:12:05;;;;;;;3.33;2.00;;;;;;;12.45;67.96;99368.53;5090869;28;20692;-59
2022/10/05 06:14:46;;;;;;;3.28;3.08;;;;;;;12.52;68.18;99370.66;5091657;28;20189;-59
2022/10/05 06:17:30;;;;;;;2.92;1.88;;;;;;;12.51;67.70;99370.75;5091592;28;20160;-59
2022/10/05 06:19:57;;;;;;;2.40;2.20;;;;;;;12.62;67.66;99381.31;5094888;28;20191;-59
2022/10/05 06:22:32;;;;;;;2.53;2.33;;;;;;;12.65;67.40;99381.16;5095315;28;20175;-59
2022/10/05 06:25:13;;;;;;;2.97;1.83;;;;;;;12.64;67.13;99393.28;5095796;28;20160;-59
2022/10/05 06:28:18;;;;;;;1.98;1.80;;;;;;;12.59;67.68;99392.72;5093817;28;20729;-59
2022/10/05 06:31:05;;;;;;;2.20;2.05;;;;;;;12.69;67.45;99401.63;5094010;28;20172;-59
2022/10/05 06:33:51;;;;;;;1.92;1.73;;;;;;;12.77;67.24;99407.19;5095453;28;20173;-59
2022/10/05 06:36:34;;;;;;;2.80;2.08;;;;;;;12.87;66.54;99410.88;5095162;28;20180;-59
2022/10/05 06:39:00;;;;;;;1.90;1.80;;;;;;;12.86;67.31;99418.75;5093799;28;20202;-59
2022/10/05 06:41:33;;;;;;;2.20;2.10;;;;;;;13.06;66.44;99408.03;5093749;28;20177;-59
2022/10/05 06:44:22;;;;;;;2.20;2.10;;;;;;;13.18;66.14;99412.44;5095328;28;20165;-59
2022/10/05 06:47:08;;;;;;;2.85;2.25;;;;;;;13.44;64.69;99409.00;5095079;28;20203;-59
2022/10/05 06:49:55;;;;;;;3.80;2.10;;;;;;;13.76;63.55;99415.56;5094928;28;20172;-59
2022/10/05 06:52:50;;;;;;;2.03;1.92;;;;;;;13.83;63.23;99412.44;5094796;28;20314;-59
2022/10/05 06:55:42;;;;;;;2.25;2.15;;;;;;;13.80;63.57;99410.06;5094743;28;20164;-59
2022/10/05 06:58:26;;;;;;;3.42;2.38;;;;;;;13.79;63.38;99421.41;5094797;28;20160;-59
2022/10/05 07:01:02;;;;;;;2.55;2.10;;;;;;;13.84;63.51;99408.09;5094730;28;20597;-59
2022/10/05 07:03:47;;;;;;;2.20;2.05;;;;;;;14.05;63.33;99406.69;5094846;28;20164;-59
2022/10/05 07:06:20;;;;;;;2.28;2.10;;;;;;;14.21;62.92;99409.94;5094473;28;20630;-59
2022/10/05 07:09:00;;;;;;;2.28;2.10;;;;;;;14.35;62.45;99408.06;5093201;28;20607;-60
2022/10/05 07:11:44;;;;;;;2.75;2.05;;;;;;;14.50;62.00;99400.97;5094375;28;20246;-59
2022/10/05 07:14:18;;;;;;;1.80;1.70;;;;;;;14.69;60.66;99397.00;5094537;28;20180;-59
2022/10/05 07:17:12;;;;;;;1.80;1.70;;;;;;;14.79;60.14;99395.41;5094653;28;20164;-59
2022/10/05 07:19:48;;;;;;;2.53;2.30;;;;;;;14.78;60.91;99401.56;5085129;28;20200;-59
2022/10/05 07:22:51;;;;;;;2.00;1.90;;;;;;;14.87;60.58;99403.53;5094521;28;20565;-59
2022/10/05 07:25:39;;;;;;;5.03;2.15;;;;;;;15.03;60.19;99390.25;5094209;28;20172;-59
2022/10/05 07:28:35;;;;;;;1.80;1.70;;;;;;;15.04;60.05;99399.75;5094130;28;20189;-59
2022/10/05 07:31:31;;;;;;;2.10;2.00;;;;;;;15.20;59.56;99402.91;5079284;28;20603;-59
2022/10/05 07:34:14;;;;;;;2.00;1.90;;;;;;;15.32;59.31;99396.81;5065774;28;20180;-59
2022/10/05 07:39:55;;;;;;;2.22;2.13;;;;;;;15.69;58.57;99401.88;5093956;28;20218;-60
2022/10/05 07:42:39;;;;;;;3.67;2.40;;;;;;;15.86;57.97;99401.47;5094174;28;20156;-57
2022/10/05 07:45:22;;;;;;;1.73;1.63;;;;;;;15.94;57.46;99408.75;5093859;28;20525;-58
2022/10/05 07:47:55;;;;;;;1.83;1.52;;;;;;;16.04;57.38;99396.69;5092965;28;20806;-59
2022/10/05 07:50:52;;;;;;;1.80;1.70;;;;;;;16.19;57.53;99390.28;5092420;28;20176;-58
2022/10/05 07:53:23;;;;;;;2.05;1.90;;;;;;;16.32;56.69;99398.88;5048839;28;20241;-59
2022/10/05 07:55:53;;;;;;;3.20;1.92;;;;;;;16.47;56.91;99398.56;5093395;28;20164;-58
2022/10/05 07:58:28;;;;;;;3.60;1.75;;;;;;;16.61;56.58;99402.72;5092981;28;20576;-58
2022/10/05 08:01:10;;;;;;;2.47;1.90;;;;;;;16.64;55.84;99403.31;5093487;28;20254;-59
2022/10/05 08:04:05;;;;;;;4.20;2.00;;;;;;;16.80;55.74;99410.81;5093832;28;20164;-58
2022/10/05 08:06:36;;;;;;;5.25;2.28;;;;;;;16.97;55.57;99407.69;5089413;28;20220;-59
2022/10/05 08:09:31;;;;;;;3.75;1.98;;;;;;;17.14;55.93;99417.66;5093539;28;20207;-59
2022/10/05 08:12:06;;;;;;;1.95;1.85;;;;;;;17.28;55.78;99413.00;5088975;28;20243;-57
2022/10/05 08:15:04;;;;;;;3.88;1.90;;;;;;;17.51;53.62;99419.03;5093598;28;20183;-59
2022/10/05 08:17:55;;;;;;;3.53;1.80;;;;;;;17.62;52.86;99421.63;5091950;28;20160;-58
2022/10/05 08:20:38;;;;;;;2.25;1.58;;;;;;;17.71;52.02;99431.31;5093108;28;20264;-59
2022/10/05 08:23:10;;;;;;;1.80;1.70;;;;;;;17.79;51.51;99423.69;5093020;28;20159;-59
2022/10/05 08:25:36;;;;;;;1.73;1.63;;;;;;;17.84;51.89;99424.97;5092987;28;20164;-59
2022/10/05 08:28:20;;;;;;;2.08;1.58;;;;;;;17.96;51.00;99418.72;5093117;28;20215;-59
2022/10/05 08:31:20;;;;;;;3.08;1.73;;;;;;;18.09;50.75;99426.41;5093103;28;20152;-59
2022/10/05 08:34:01;;;;;;;1.60;1.50;;;;;;;18.13;49.99;99427.81;5049666;28;20194;-59
2022/10/05 08:36:54;;;;;;;4.50;1.95;;;;;;;18.19;50.36;99424.69;5092836;28;20191;-59
2022/10/05 08:39:24;;;;;;;3.65;2.95;;;;;;;18.34;49.44;99426.88;5093025;28;20225;-59
2022/10/05 08:42:08;;;;;;;5.43;1.90;;;;;;;18.39;49.43;99410.75;5091883;28;20179;-59
2022/10/05 08:45:07;;;;;;;2.20;2.10;;;;;;;18.48;48.88;99418.69;5092867;28;20162;-59
2022/10/05 08:48:00;;;;;;;1.95;1.40;;;;;;;18.45;48.08;99423.34;5092690;28;20549;-58
2022/10/05 08:51:06;;;;;;;1.58;1.48;;;;;;;18.50;47.91;99426.41;5092848;28;20172;-59
2022/10/05 08:53:35;;;;;;;1.20;1.20;;;;;;;18.51;47.09;99418.44;5092589;28;20167;-59
2022/10/05 08:56:28;;;;;;;2.15;1.42;;;;;;;18.49;47.26;99406.41;5092421;28;20194;-59
2022/10/05 08:59:21;;;;;;;3.45;1.63;;;;;;;18.54;47.29;99406.84;5092812;28;20144;-59
2022/10/05 09:01:47;;;;;;;3.45;1.70;;;;;;;18.59;46.85;99402.06;5092373;28;20656;-59
2022/10/05 09:04:12;;;;;;;3.75;1.60;;;;;;;18.64;46.55;99402.47;5092374;28;20179;-59
2022/10/05 09:06:56;;;;;;;1.10;1.00;;;;;;;18.67;46.03;99404.84;5092264;28;20192;-59
2022/10/05 09:09:47;;;;;;;1.67;1.58;;;;;;;18.74;45.05;99406.81;5091048;28;20175;-59
2022/10/05 09:12:30;;;;;;;1.60;1.50;;;;;;;18.81;45.56;99409.72;5092170;28;20184;-59
2022/10/05 09:15:38;;;;;;;1.45;1.33;;;;;;;18.86;44.39;99410.16;5092439;28;20221;-59
2022/10/05 09:18:28;;;;;;;1.45;1.35;;;;;;;18.93;44.70;99404.25;5092024;28;20179;-59
2022/10/05 09:21:36;;;;;;;4.22;1.38;;;;;;;18.99;45.09;99403.72;5092053;28;20190;-59
2022/10/05 09:24:26;;;;;;;1.88;1.48;;;;;;;18.99;44.98;99402.88;5053931;28;20572;-59
2022/10/05 09:27:01;;;;;;;1.73;1.10;;;;;;;19.07;44.81;99403.06;5082140;28;20211;-59
2022/10/05 09:30:04;;;;;;;1.33;1.30;;;;;;;19.12;44.43;99403.50;5091995;28;20648;-59
2022/10/05 09:32:51;;;;;;;1.52;1.40;;;;;;;19.01;44.20;99400.97;5092002;28;20219;-58
2022/10/05 09:35:37;;;;;;;2.35;1.58;;;;;;;19.16;44.06;99402.25;5092557;28;20218;-59
2022/10/05 09:38:22;;;;;;;2.05;1.17;;;;;;;19.16;43.00;99399.63;5090573;28;20171;-59
2022/10/05 09:41:06;;;;;;;1.20;1.00;;;;;;;19.26;43.03;99400.50;5092209;28;20179;-59
2022/10/05 09:43:59;;;;;;;1.02;1.02;;;;;;;19.38;42.54;99399.41;5091937;28;20167;-59
2022/10/05 09:46:24;;;;;;;1.15;1.10;;;;;;;19.31;43.16;99398.31;5091786;28;20203;-59
2022/10/05 09:49:08;;;;;;;4.07;0.90;;;;;;;19.36;43.31;99398.75;5092039;28;20208;-59
2022/10/05 09:52:00;;;;;;;1.17;1.15;;;;;;;19.43;42.39;99402.47;5092188;28;20168;-59
2022/10/05 09:54:35;;;;;;;4.68;1.50;;;;;;;19.55;42.40;99401.38;5085146;28;20183;-59
2022/10/05 09:57:18;;;;;;;4.75;1.50;;;;;;;19.60;42.72;99404.44;5096219;28;20159;-59
2022/10/05 10:00:07;;;;;;;3.08;1.45;;;;;;;19.63;42.56;99409.38;5096039;28;20175;-59
2022/10/05 10:02:37;;;;;;;1.65;1.55;;;;;;;19.75;42.42;99409.13;5094607;28;20595;-59
2022/10/05 10:05:38;;;;;;;2.33;1.58;;;;;;;19.73;42.65;99404.97;5095808;28;20167;-59
2022/10/05 10:08:31;;;;;;;1.90;1.65;;;;;;;19.80;42.52;99408.69;5095449;28;20199;-59
2022/10/05 10:11:25;;;;;;;1.63;1.20;;;;;;;19.96;41.44;99411.59;5095666;28;20200;-59
2022/10/05 10:14:21;;;;;;;2.30;1.60;;;;;;;20.07;41.46;99404.44;5095735;28;20160;-59
2022/10/05 10:17:18;;;;;;;3.78;1.50;;;;;;;20.25;42.00;99407.19;5095527;28;20164;-59
2022/10/05 10:20:05;;;;;;;1.50;1.45;;;;;;;20.37;41.70;99403.41;5060559;28;20246;-59
2022/10/05 10:23:02;;;;;;;1.95;1.00;;;;;;;20.51;40.39;99397.72;5095361;28;20244;-59
2022/10/05 10:25:48;;;;;;;2.42;1.13;;;;;;;20.60;41.15;99394.22;5093995;28;20175;-59
2022/10/05 10:28:51;;;;;;;2.47;1.40;;;;;;;20.79;40.81;99402.03;5095458;28;20183;-59
2022/10/05 10:31:22;;;;;;;3.65;1.55;;;;;;;21.00;40.15;99400.88;5095568;28;20167;-59
2022/10/05 10:34:15;;;;;;;1.40;1.33;;;;;;;21.09;39.22;99396.53;5095536;28;20539;-59
2022/10/05 10:37:05;;;;;;;1.23;1.20;;;;;;;21.26;38.83;99393.91;5095477;28;20159;-59
2022/10/05 10:39:55;;;;;;;1.58;1.35;;;;;;;21.39;38.59;99396.22;5095477;28;20160;-59
2022/10/05 10:42:32;;;;;;;2.75;1.50;;;;;;;21.42;38.47;99395.88;5095331;28;20168;-59
2022/10/05 10:45:26;;;;;;;1.73;1.58;;;;;;;21.52;37.66;99399.28;5095074;28;20174;-59
2022/10/05 10:48:03;;;;;;;1.35;1.20;;;;;;;21.54;38.11;99397.31;5083875;28;20231;-59
2022/10/05 10:51:02;;;;;;;1.92;1.48;;;;;;;21.76;37.85;99395.13;5095149;28;20672;-58
2022/10/05 10:53:52;;;;;;;2.80;1.45;;;;;;;21.65;37.30;99392.69;5095201;28;20155;-59
2022/10/05 10:56:38;;;;;;;1.63;1.52;;;;;;;21.71;37.63;99386.00;5095041;28;20243;-59
2022/10/05 10:59:22;;;;;;;1.38;1.27;;;;;;;21.74;37.24;99398.88;5095156;28;20148;-59
2022/10/05 11:02:18;;;;;;;1.88;1.15;;;;;;;21.80;37.48;99395.66;5094778;28;20617;-58
2022/10/05 11:05:07;;;;;;;2.53;1.35;;;;;;;21.78;37.07;99390.50;5093809;28;20697;-59
2022/10/05 11:08:08;;;;;;;1.48;1.42;;;;;;;21.91;36.44;99398.06;5095139;28;20275;-59
2022/10/05 11:10:41;;;;;;;3.20;1.88;;;;;;;22.00;36.37;99386.56;5012445;28;20224;-59
2022/10/05 11:13:26;;;;;;;1.52;1.30;;;;;;;22.03;36.14;99375.75;5077614;28;20227;-59
2022/10/05 11:16:13;;;;;;;1.50;1.40;;;;;;;22.13;36.76;99379.09;5094487;28;20168;-59
2022/10/05 11:19:15;;;;;;;4.32;1.70;;;;;;;22.07;35.97;99377.06;5094120;28;20184;-59
2022/10/05 11:22:20;;;;;;;1.45;1.40;;;;;;;21.83;36.79;99382.16;5094335;28;20163;-59
2022/10/05 11:25:09;;;;;;;3.53;1.77;;;;;;;21.79;37.46;99372.91;5092673;28;20191;-59
2022/10/05 11:28:08;;;;;;;4.00;1.63;;;;;;;22.10;36.84;99371.50;5077405;28;20212;-59
2022/10/05 11:30:57;;;;;;;2.92;1.50;;;;;;;22.31;35.83;99372.78;5094695;28;20629;-59
2022/10/05 11:33:55;;;;;;;3.95;1.70;;;;;;;22.48;35.84;99377.22;5094352;28;20164;-59
2022/10/05 11:36:39;;;;;;;4.50;3.70;;;;;;;22.51;35.75;99371.66;5094329;28;20160;-59
2022/10/05 11:39:16;;;;;;;1.58;1.50;;;;;;;22.58;35.00;99371.81;5094163;28;20170;-59
2022/10/05 11:41:53;;;;;;;2.03;1.65;;;;;;;22.57;35.09;99367.53;5093896;28;20649;-59
2022/10/05 11:44:37;;;;;;;3.58;1.40;;;;;;;22.39;35.36;99367.59;5092608;28;20175;-59
2022/10/05 11:47:24;;;;;;;1.45;1.13;;;;;;;22.34;35.20;99367.22;5093802;28;20183;-59
2022/10/05 11:50:04;;;;;;;1.80;1.55;;;;;;;22.33;35.16;99352.34;5094063;28;20657;-59
2022/10/05 11:52:55;;;;;;;2.03;1.20;;;;;;;22.58;33.98;99358.63;5093834;28;20238;-59
2022/10/05 11:55:33;;;;;;;1.52;1.42;;;;;;;22.64;34.64;99360.66;5094094;28;20156;-59
2022/10/05 11:58:14;;;;;;;2.65;1.45;;;;;;;22.81;33.92;99354.47;5093891;28;20171;-59
2022/10/05 12:00:47;;;;;;;4.10;1.40;;;;;;;22.84;33.72;99352.31;5093784;28;20156;-58
2022/10/05 12:03:41;;;;;;;3.03;1.20;;;;;;;22.74;33.98;99350.81;5093817;28;20577;-58
2022/10/05 12:06:21;;;;;;;2.17;1.38;;;;;;;22.87;34.32;99351.19;5094087;28;20163;-59
2022/10/05 12:09:25;;;;;;;2.83;1.27;;;;;;;22.91;33.58;99349.88;5093241;28;20178;-58
2022/10/05 12:12:28;;;;;;;1.55;1.20;;;;;;;22.85;33.23;99346.06;5093316;28;20274;-58
2022/10/05 12:15:18;;;;;;;2.83;1.30;;;;;;;22.82;33.79;99342.91;5092249;28;20183;-58
2022/10/05 12:18:38;;;;;;;2.30;1.50;;;;;;;22.66;33.88;99340.22;5093101;28;20152;-58
2022/10/05 12:21:08;;;;;;;2.97;1.48;;;;;;;22.69;33.99;99334.63;5093053;28;20280;-58
2022/10/05 12:24:24;;;;;;;3.15;1.27;;;;;;;22.47;33.89;99337.81;5092754;28;20679;-58
2022/10/05 12:27:05;;;;;;;3.53;1.55;;;;;;;22.56;34.28;99334.22;5093101;28;20665;-58
2022/10/05 12:29:54;;;;;;;6.03;1.45;;;;;;;22.65;34.21;99330.63;5093240;28;20156;-58
2022/10/05 12:32:32;;;;;;;3.45;3.15;;;;;;;22.67;34.14;99328.69;5093058;28;20649;-58
2022/10/05 12:35:23;;;;;;;4.45;1.58;;;;;;;22.55;35.10;99324.66;5092997;28;20172;-58
2022/10/05 12:37:57;;;;;;;1.63;1.52;;;;;;;22.37;34.71;99319.41;5092880;28;20706;-59
2022/10/05 12:40:28;;;;;;;2.10;1.27;;;;;;;22.34;34.29;99316.28;5092603;28;20171;-58
2022/10/05 12:43:20;;;;;;;2.78;1.20;;;;;;;22.28;34.56;99319.53;5092829;28;20187;-59
2022/10/05 12:46:16;;;;;;;1.33;1.23;;;;;;;22.07;33.71;99313.78;5090711;28;20607;-58
2022/10/05 12:49:31;;;;;;;1.77;1.42;;;;;;;21.83;33.73;99311.84;5092112;28;20187;-58
2022/10/05 12:52:44;;;;;;;3.10;1.50;;;;;;;21.73;34.96;99305.81;5045106;28;20226;-58